Time;durP1;ratioP1;P1;durP2;ratioP2;P2;SDS_P1;SDS_P2;PMS_P1;PMS_P2;Temp;Humidity;BMP_temperature;BMP_pressure;BME280_temperature;BME280_humidity;BME280_pressure;Samples;Min_cycle;Max_cycle;Signal;HPM_P1;HPM_P2
2022/09/20 00:00:35;;;;;;;59.00;3.60;;;;;;;;;;5069241;28;20447;-66
2022/09/20 00:03:02;;;;;;;58.50;2.83;;;;;;;;;;5070695;28;20962;-66
2022/09/20 00:05:29;;;;;;;58.60;2.90;;;;;;;;;;5071479;28;20491;-66
2022/09/20 00:07:56;;;;;;;58.87;3.37;;;;;;;;;;5071462;28;20451;-66
2022/09/20 00:10:23;;;;;;;58.47;2.80;;;;;;;;;;5070705;28;20910;-66
2022/09/20 00:12:51;;;;;;;59.50;3.70;;;;;;;;;;5071737;28;20443;-66
2022/09/20 00:15:18;;;;;;;58.37;3.00;;;;;;;;;;5071353;28;20834;-66
2022/09/20 00:17:46;;;;;;;60.07;3.20;;;;;;;;;;5071434;28;20952;-66
2022/09/20 00:20:13;;;;;;;58.20;2.60;;;;;;;;;;5071166;28;20456;-66
2022/09/20 00:22:40;;;;;;;58.80;3.00;;;;;;;;;;5071430;28;20943;-66
2022/09/20 00:25:08;;;;;;;58.87;3.10;;;;;;;;;;5071198;28;20498;-66
2022/09/20 00:27:35;;;;;;;59.87;3.20;;;;;;;;;;5071672;28;20447;-66
2022/09/20 00:30:02;;;;;;;58.50;3.03;;;;;;;;;;5071133;28;20968;-66
2022/09/20 00:32:31;;;;;;;64.13;4.23;;;;;;;;;;5068870;28;20457;-66
2022/09/20 00:35:09;;;;;;;58.10;2.60;;;;;;;;;;5071033;28;20533;-66
2022/09/20 00:37:36;;;;;;;58.40;2.80;;;;;;;;;;5071132;28;20475;-66
2022/09/20 00:40:04;;;;;;;58.67;3.03;;;;;;;;;;5070861;28;20455;-66
2022/09/20 00:42:31;;;;;;;59.13;3.43;;;;;;;;;;5071380;28;20447;-66
2022/09/20 00:44:59;;;;;;;57.97;2.60;;;;;;;;;;5071159;28;20567;-66
2022/09/20 00:47:28;;;;;;;59.20;3.10;;;;;;;;;;5071061;28;20459;-66
2022/09/20 00:49:58;;;;;;;58.87;3.20;;;;;;;;;;5070527;28;20451;-66
2022/09/20 00:52:27;;;;;;;58.30;2.60;;;;;;;;;;5071156;28;20451;-66
2022/09/20 00:54:55;;;;;;;58.40;3.03;;;;;;;;;;5071009;28;20467;-66
2022/09/20 00:57:22;;;;;;;59.10;3.40;;;;;;;;;;5071196;28;20443;-66
2022/09/20 00:59:50;;;;;;;58.47;2.90;;;;;;;;;;5070792;28;20447;-66
2022/09/20 01:02:18;;;;;;;58.47;2.77;;;;;;;;;;5068915;28;20455;-66
2022/09/20 01:04:46;;;;;;;58.40;3.10;;;;;;;;;;5071370;28;20943;-66
2022/09/20 01:07:15;;;;;;;61.90;3.10;;;;;;;;;;5071091;28;20487;-66
2022/09/20 01:09:44;;;;;;;58.30;3.00;;;;;;;;;;5070764;28;20459;-66
2022/09/20 01:12:14;;;;;;;58.30;2.73;;;;;;;;;;5071093;28;20765;-66
2022/09/20 01:14:41;;;;;;;59.07;3.40;;;;;;;;;;5072691;28;20463;-66
2022/09/20 01:17:09;;;;;;;58.07;2.60;;;;;;;;;;5074362;28;20439;-66
2022/09/20 01:19:39;;;;;;;58.10;3.03;;;;;;;;;;5074606;28;20810;-66
2022/09/20 01:22:08;;;;;;;58.50;2.80;;;;;;;;;;5074450;28;20951;-66
2022/09/20 01:24:39;;;;;;;59.17;3.27;;;;;;;;;;5074439;28;20467;-66
2022/09/20 01:27:14;;;;;;;58.77;3.13;;;;;;;;;;5074400;28;20513;-66
2022/09/20 01:29:50;;;;;;;58.77;3.13;;;;;;;;;;5073875;28;20849;-66
2022/09/20 01:32:20;;;;;;;58.37;3.13;;;;;;;;;;5074241;28;20446;-66
2022/09/20 01:34:48;;;;;;;58.30;3.00;;;;;;;;;;5072068;28;20708;-66
2022/09/20 01:37:20;;;;;;;59.00;3.53;;;;;;;;;;5074284;28;20450;-66
2022/09/20 01:39:51;;;;;;;58.50;3.00;;;;;;;;;;5073853;28;20458;-66
2022/09/20 01:42:18;;;;;;;58.47;3.30;;;;;;;;;;5074091;28;20958;-66
2022/09/20 01:44:51;;;;;;;58.30;2.90;;;;;;;;;;5058754;28;20478;-65
2022/09/20 01:47:23;;;;;;;61.73;3.50;;;;;;;;;;5053946;28;20491;-65
2022/09/20 01:49:56;;;;;;;58.47;3.07;;;;;;;;;;5053413;28;20448;-65
2022/09/20 01:52:34;;;;;;;58.27;3.00;;;;;;;;;;5054154;28;20483;-65
2022/09/20 01:55:22;;;;;;;59.63;3.50;;;;;;;;;;5053798;28;20468;-65
2022/09/20 01:58:05;;;;;;;59.20;3.43;;;;;;;;;;5053744;28;20440;-65
2022/09/20 02:00:36;;;;;;;62.30;3.57;;;;;;;;;;5053459;28;20456;-65
2022/09/20 02:03:12;;;;;;;58.70;3.00;;;;;;;;;;5054283;28;20810;-65
2022/09/20 02:06:03;;;;;;;58.57;2.80;;;;;;;;;;5053560;28;20484;-65
2022/09/20 02:08:44;;;;;;;58.77;3.23;;;;;;;;;;5057277;28;20455;-65
2022/09/20 02:11:13;;;;;;;59.57;3.40;;;;;;;;;;5073728;28;20443;-65
2022/09/20 02:13:58;;;;;;;59.00;3.07;;;;;;;;;;5073615;28;20512;-65
2022/09/20 02:16:40;;;;;;;58.57;2.93;;;;;;;;;;5073479;28;20935;-65
2022/09/20 02:19:26;;;;;;;58.47;2.80;;;;;;;;;;5070849;28;20471;-67
2022/09/20 02:21:58;;;;;;;58.47;3.33;;;;;;;;;;5073553;28;20449;-65
2022/09/20 02:24:29;;;;;;;62.07;4.57;;;;;;;;;;5073419;28;20831;-65
2022/09/20 02:27:03;;;;;;;58.33;2.80;;;;;;;;;;5072291;28;20475;-65
2022/09/20 02:29:33;;;;;;;59.10;3.10;;;;;;;;;;5073031;28;20443;-65
2022/09/20 02:32:13;;;;;;;58.60;3.30;;;;;;;;;;5073177;28;20454;-65
2022/09/20 02:34:50;;;;;;;58.60;3.00;;;;;;;;;;5072860;28;20540;-65
2022/09/20 02:37:29;;;;;;;58.57;3.10;;;;;;;;;;5072959;28;20445;-65
2022/09/20 02:40:02;;;;;;;58.77;2.87;;;;;;;;;;5070187;28;20454;-65
2022/09/20 02:42:32;;;;;;;59.10;3.27;;;;;;;;;;5073202;28;20443;-65
2022/09/20 02:45:03;;;;;;;59.77;3.73;;;;;;;;;;5072941;28;20463;-65
2022/09/20 02:47:33;;;;;;;58.97;3.17;;;;;;;;;;5072847;28;21003;-65
2022/09/20 02:50:19;;;;;;;59.07;3.20;;;;;;;;;;5072452;28;20451;-65
2022/09/20 02:52:52;;;;;;;58.50;2.70;;;;;;;;;;5072774;28;20444;-65
2022/09/20 02:55:24;;;;;;;58.27;2.73;;;;;;;;;;5072752;28;20470;-65
2022/09/20 02:57:54;;;;;;;58.40;2.90;;;;;;;;;;5072765;28;20446;-65
2022/09/20 03:00:24;;;;;;;61.07;3.57;;;;;;;;;;5072223;28;20443;-65
2022/09/20 03:02:59;;;;;;;58.30;2.70;;;;;;;;;;5072851;28;20450;-65
2022/09/20 03:05:28;;;;;;;58.73;2.77;;;;;;;;;;5072664;28;20507;-65
2022/09/20 03:08:04;;;;;;;59.77;3.93;;;;;;;;;;5072472;28;20486;-65
2022/09/20 03:10:36;;;;;;;58.73;3.30;;;;;;;;;;5072203;28;20455;-65
2022/09/20 03:13:12;;;;;;;58.17;2.80;;;;;;;;;;5070980;28;20451;-65
2022/09/20 03:15:44;;;;;;;59.17;3.27;;;;;;;;;;5072696;28;20463;-65
2022/09/20 03:18:12;;;;;;;58.57;3.37;;;;;;;;;;5072409;28;20813;-65
2022/09/20 03:20:44;;;;;;;58.63;2.80;;;;;;;;;;5072092;28;20466;-65
2022/09/20 03:23:19;;;;;;;58.07;2.90;;;;;;;;;;5071986;28;20444;-65
2022/09/20 03:25:54;;;;;;;58.57;2.90;;;;;;;;;;5072365;28;20443;-65
2022/09/20 03:28:31;;;;;;;58.27;3.13;;;;;;;;;;5071985;28;20446;-65
2022/09/20 03:31:05;;;;;;;58.80;3.17;;;;;;;;;;5072178;28;20455;-65
2022/09/20 03:33:38;;;;;;;59.10;3.17;;;;;;;;;;5072036;28;20451;-65
2022/09/20 03:36:12;;;;;;;58.17;2.80;;;;;;;;;;5071947;28;20946;-65
2022/09/20 03:39:03;;;;;;;58.53;2.63;;;;;;;;;;5071691;28;20445;-65
2022/09/20 03:41:39;;;;;;;58.40;2.93;;;;;;;;;;5071698;28;20932;-65
2022/09/20 03:44:23;;;;;;;58.50;2.77;;;;;;;;;;5069217;28;20469;-65
2022/09/20 03:46:52;;;;;;;58.40;2.90;;;;;;;;;;5071956;28;20493;-65
2022/09/20 03:49:35;;;;;;;60.93;5.13;;;;;;;;;;5071494;28;20458;-65
2022/09/20 03:52:08;;;;;;;58.63;3.07;;;;;;;;;;5071883;28;20455;-65
2022/09/20 03:54:45;;;;;;;58.60;3.10;;;;;;;;;;5071593;28;20562;-65
2022/09/20 03:57:33;;;;;;;65.83;3.30;;;;;;;;;;5071937;28;20447;-65
2022/09/20 04:00:13;;;;;;;58.57;3.60;;;;;;;;;;5071507;28;20475;-65
2022/09/20 04:02:46;;;;;;;59.30;3.47;;;;;;;;;;5071727;28;20439;-65
2022/09/20 04:05:16;;;;;;;58.40;3.03;;;;;;;;;;5071963;28;20464;-65
2022/09/20 04:07:50;;;;;;;60.10;3.40;;;;;;;;;;5071784;28;20487;-65
2022/09/20 04:10:24;;;;;;;58.13;3.10;;;;;;;;;;5071410;28;20822;-65
2022/09/20 04:13:05;;;;;;;58.40;3.10;;;;;;;;;;5071549;28;20509;-65
2022/09/20 04:15:37;;;;;;;59.33;2.93;;;;;;;;;;5069406;28;20467;-65
2022/09/20 04:18:08;;;;;;;60.27;2.80;;;;;;;;;;5071649;28;20458;-65
2022/09/20 04:20:41;;;;;;;58.60;3.03;;;;;;;;;;5071237;28;20451;-65
2022/09/20 04:23:13;;;;;;;58.20;2.63;;;;;;;;;;5071538;28;20549;-65
2022/09/20 04:25:44;;;;;;;58.90;3.60;;;;;;;;;;5071345;28;20834;-67
2022/09/20 04:28:14;;;;;;;57.97;2.50;;;;;;;;;;5071232;28;21033;-67
2022/09/20 04:30:43;;;;;;;60.10;3.10;;;;;;;;;;5071358;28;20812;-65
2022/09/20 04:33:14;;;;;;;58.47;2.90;;;;;;;;;;5071484;28;20451;-65
2022/09/20 04:38:29;;;;;;;58.83;3.20;;;;;;;;;;5071124;28;20449;-67
2022/09/20 04:41:08;;;;;;;58.50;3.40;;;;;;;;;;5071203;28;20959;-65
2022/09/20 04:43:52;;;;;;;58.27;3.00;;;;;;;;;;5071186;28;20467;-65
2022/09/20 04:46:51;;;;;;;59.00;3.17;;;;;;;;;;5071031;28;20455;-65
2022/09/20 04:49:39;;;;;;;58.43;3.23;;;;;;;;;;5070700;28;20451;-65
2022/09/20 04:52:28;;;;;;;58.70;3.00;;;;;;;;;;5075234;28;20796;-65
2022/09/20 04:55:14;;;;;;;59.87;3.27;;;;;;;;;;5049575;28;20557;-65
2022/09/20 04:57:52;;;;;;;58.30;2.70;;;;;;;;;;5075212;28;20450;-65
2022/09/20 05:00:20;;;;;;;58.40;2.90;;;;;;;;;;5074748;28;20450;-65
2022/09/20 05:03:04;;;;;;;58.37;2.80;;;;;;;;;;5074950;28;20455;-65
2022/09/20 05:05:47;;;;;;;58.40;2.93;;;;;;;;;;5074658;28;20473;-65
2022/09/20 05:08:26;;;;;;;59.10;3.20;;;;;;;;;;5074791;28;20483;-65
2022/09/20 05:11:08;;;;;;;58.23;2.83;;;;;;;;;;5074711;28;20447;-65
2022/09/20 05:13:44;;;;;;;58.37;2.87;;;;;;;;;;5062108;28;20471;-65
2022/09/20 05:16:18;;;;;;;59.07;3.20;;;;;;;;;;5074926;28;20439;-65
2022/09/20 05:19:03;;;;;;;58.30;2.83;;;;;;;;;;5071985;28;20793;-65
2022/09/20 05:21:38;;;;;;;58.50;2.93;;;;;;;;;;5074736;28;20442;-65
2022/09/20 05:24:12;;;;;;;58.57;3.17;;;;;;;;;;5074367;28;20472;-65
2022/09/20 05:26:45;;;;;;;59.93;4.00;;;;;;;;;;5074583;28;20853;-65
2022/09/20 05:29:18;;;;;;;58.87;3.33;;;;;;;;;;5074235;28;20462;-65
2022/09/20 05:31:49;;;;;;;58.60;3.20;;;;;;;;;;5074479;28;20455;-65
2022/09/20 05:34:21;;;;;;;59.77;4.40;;;;;;;;;;5074220;28;21014;-65
2022/09/20 05:36:55;;;;;;;58.27;2.80;;;;;;;;;;5074006;28;20958;-65
2022/09/20 05:39:29;;;;;;;58.57;3.10;;;;;;;;;;5074096;28;20796;-65
2022/09/20 05:41:58;;;;;;;58.07;2.80;;;;;;;;;;5074162;28;20962;-65
2022/09/20 05:44:30;;;;;;;59.20;3.20;;;;;;;;;;5074051;28;21005;-65
2022/09/20 05:47:00;;;;;;;58.80;3.50;;;;;;;;;;5073984;28;20941;-65
2022/09/20 05:49:36;;;;;;;58.33;2.90;;;;;;;;;;5073757;28;20814;-65
2022/09/20 05:52:14;;;;;;;58.60;3.20;;;;;;;;;;5071735;28;20447;-65
2022/09/20 05:54:53;;;;;;;58.70;3.03;;;;;;;;;;5073936;28;20463;-65
2022/09/20 05:57:28;;;;;;;58.47;2.83;;;;;;;;;;5073847;28;20451;-65
2022/09/20 06:00:01;;;;;;;58.37;3.17;;;;;;;;;;5073996;28;20447;-65
2022/09/20 06:02:32;;;;;;;58.40;3.07;;;;;;;;;;5072668;28;20454;-65
2022/09/20 06:05:02;;;;;;;59.30;3.10;;;;;;;;;;5073856;28;20502;-65
2022/09/20 06:07:33;;;;;;;57.97;2.57;;;;;;;;;;5073659;28;20533;-65
2022/09/20 06:10:15;;;;;;;58.60;3.20;;;;;;;;;;5073560;28;20810;-65
2022/09/20 06:12:51;;;;;;;58.80;2.93;;;;;;;;;;5071661;28;20554;-65
2022/09/20 06:15:23;;;;;;;58.43;2.70;;;;;;;;;;5073762;28;20469;-65
2022/09/20 06:17:55;;;;;;;58.40;3.10;;;;;;;;;;5073577;28;20435;-65
2022/09/20 06:20:26;;;;;;;59.13;3.63;;;;;;;;;;5073148;28;20522;-65
2022/09/20 06:22:55;;;;;;;58.70;2.97;;;;;;;;;;5071358;28;20451;-65
2022/09/20 06:25:23;;;;;;;58.07;2.90;;;;;;;;;;5073429;28;20836;-65
2022/09/20 06:27:53;;;;;;;60.50;3.47;;;;;;;;;;5073292;28;20489;-65
2022/09/20 06:30:23;;;;;;;57.67;2.70;;;;;;;;;;5072926;28;20448;-67
2022/09/20 06:32:53;;;;;;;58.83;3.20;;;;;;;;;;5073037;28;20943;-65
2022/09/20 06:35:21;;;;;;;57.93;2.60;;;;;;;;;;5072886;28;21003;-65
2022/09/20 06:43:25;;;;;;;57.93;2.63;;;;;;;;;;5072822;28;20431;-65
2022/09/20 06:45:53;;;;;;;57.93;2.47;;;;;;;;;;5073243;28;20516;-66
2022/09/20 06:48:20;;;;;;;59.23;2.93;;;;;;;;;;5072299;28;20480;-66
2022/09/20 06:50:48;;;;;;;58.17;2.70;;;;;;;;;;5072557;28;20935;-66
2022/09/20 06:53:17;;;;;;;58.10;3.00;;;;;;;;;;5072409;28;20940;-66
2022/09/20 06:55:45;;;;;;;58.10;2.73;;;;;;;;;;5072609;28;20505;-66
2022/09/20 06:58:12;;;;;;;57.87;2.73;;;;;;;;;;5072519;28;20447;-66
2022/09/20 07:00:39;;;;;;;58.97;3.43;;;;;;;;;;5072596;28;20447;-66
2022/09/20 07:03:08;;;;;;;59.20;3.00;;;;;;;;;;5072572;28;20448;-65
2022/09/20 07:05:36;;;;;;;58.13;3.03;;;;;;;;;;5072517;28;20490;-66
2022/09/20 07:08:03;;;;;;;58.17;2.90;;;;;;;;;;5071809;28;20483;-66
2022/09/20 07:10:30;;;;;;;58.60;3.57;;;;;;;;;;5072023;28;20962;-66
2022/09/20 07:12:59;;;;;;;58.00;3.07;;;;;;;;;;5072063;28;20447;-66
2022/09/20 07:15:26;;;;;;;59.57;3.30;;;;;;;;;;5072639;28;20475;-66
2022/09/20 07:17:53;;;;;;;58.80;3.07;;;;;;;;;;5072292;28;20446;-68
2022/09/20 07:20:21;;;;;;;58.77;3.33;;;;;;;;;;5071939;28;20448;-69
2022/09/20 07:22:49;;;;;;;59.40;3.93;;;;;;;;;;5072214;28;20443;-68
2022/09/20 07:25:17;;;;;;;59.57;3.60;;;;;;;;;;5072002;28;20463;-69
2022/09/20 07:27:45;;;;;;;57.73;2.60;;;;;;;;;;5072056;28;21014;-69
2022/09/20 07:30:13;;;;;;;62.37;3.83;;;;;;;;;;5071904;28;20455;-68
2022/09/20 07:32:40;;;;;;;58.70;3.20;;;;;;;;;;5071922;28;20972;-66
2022/09/20 07:35:08;;;;;;;58.30;3.00;;;;;;;;;;5071921;28;20494;-66
2022/09/20 07:37:36;;;;;;;58.40;3.30;;;;;;;;;;5071873;28;20454;-65
2022/09/20 07:40:04;;;;;;;58.70;3.23;;;;;;;;;;5071899;28;20455;-67
2022/09/20 07:42:31;;;;;;;58.10;2.70;;;;;;;;;;5072030;28;20462;-67
2022/09/20 07:45:01;;;;;;;59.20;3.57;;;;;;;;;;5071789;28;21000;-67
2022/09/20 07:47:30;;;;;;;58.90;3.20;;;;;;;;;;5071623;28;20570;-65
2022/09/20 07:49:57;;;;;;;57.93;2.70;;;;;;;;;;5071466;28;20505;-68
2022/09/20 07:52:25;;;;;;;58.50;3.50;;;;;;;;;;5072042;28;20458;-65
2022/09/20 07:54:53;;;;;;;59.87;3.60;;;;;;;;;;5071753;28;20477;-67
2022/09/20 07:57:20;;;;;;;60.30;4.13;;;;;;;;;;5071799;28;20474;-65
2022/09/20 07:59:48;;;;;;;58.37;3.13;;;;;;;;;;5071465;28;20458;-66
2022/09/20 08:02:15;;;;;;;57.90;2.40;;;;;;;;;;5071437;28;20459;-69
2022/09/20 08:04:43;;;;;;;58.03;2.70;;;;;;;;;;5071302;28;20475;-65
2022/09/20 08:07:11;;;;;;;59.47;3.87;;;;;;;;;;5071809;28;20447;-67
2022/09/20 08:09:38;;;;;;;58.47;3.40;;;;;;;;;;5071180;28;20824;-67
2022/09/20 08:12:07;;;;;;;58.07;3.00;;;;;;;;;;5071214;28;20453;-66
2022/09/20 08:14:35;;;;;;;62.10;4.23;;;;;;;;;;5071547;28;21056;-66
2022/09/20 08:17:02;;;;;;;58.27;3.13;;;;;;;;;;5071414;28;20883;-65
2022/09/20 08:19:30;;;;;;;60.10;3.50;;;;;;;;;;5071384;28;20449;-66
2022/09/20 08:21:57;;;;;;;58.30;3.23;;;;;;;;;;5071672;28;20520;-66
2022/09/20 08:24:25;;;;;;;59.73;3.70;;;;;;;;;;5072316;28;20471;-68
2022/09/20 08:26:53;;;;;;;61.67;3.03;;;;;;;;;;5075800;28;20525;-65
2022/09/20 08:29:21;;;;;;;58.60;2.87;;;;;;;;;;5075236;28;20487;-65
2022/09/20 08:31:48;;;;;;;58.80;3.43;;;;;;;;;;5075287;28;20938;-65
2022/09/20 08:34:16;;;;;;;58.07;2.70;;;;;;;;;;5075418;28;20487;-68
2022/09/20 08:36:45;;;;;;;60.90;2.70;;;;;;;;;;5075381;28;20939;-66
2022/09/20 08:39:13;;;;;;;57.93;2.60;;;;;;;;;;5075262;28;20490;-67
2022/09/20 08:41:42;;;;;;;59.70;3.57;;;;;;;;;;5075426;28;20445;-67
2022/09/20 08:44:13;;;;;;;58.10;2.80;;;;;;;;;;5075320;28;20473;-67
2022/09/20 08:46:44;;;;;;;61.20;3.80;;;;;;;;;;5075698;28;20812;-67
2022/09/20 08:49:15;;;;;;;57.80;2.43;;;;;;;;;;5074919;28;20496;-67
2022/09/20 08:51:43;;;;;;;58.30;2.70;;;;;;;;;;5075406;28;20457;-65
2022/09/20 08:54:13;;;;;;;58.50;3.13;;;;;;;;;;5075177;28;20809;-65
2022/09/20 08:56:40;;;;;;;58.13;2.60;;;;;;;;;;5074995;28;20454;-67
2022/09/20 08:59:12;;;;;;;58.80;2.93;;;;;;;;;;5074705;28;20946;-66
2022/09/20 09:01:39;;;;;;;58.60;3.07;;;;;;;;;;5074913;28;20505;-65
2022/09/20 09:04:13;;;;;;;58.90;3.20;;;;;;;;;;5074647;28;20634;-64
2022/09/20 09:06:40;;;;;;;58.30;2.70;;;;;;;;;;5074942;28;20480;-64
2022/09/20 09:09:07;;;;;;;58.00;2.60;;;;;;;;;;5074347;28;20491;-65
2022/09/20 09:11:35;;;;;;;60.10;3.63;;;;;;;;;;5074752;28;20454;-65
2022/09/20 09:14:46;;;;;;;58.17;2.70;;;;;;;;;;5074659;28;20482;-65
2022/09/20 09:16:52;;;;;;;58.07;2.73;;;;;;;;;;5074561;28;20986;-65
2022/09/20 09:19:30;;;;;;;58.57;2.80;;;;;;;;;;5074315;28;20449;-65
2022/09/20 09:21:59;;;;;;;58.50;3.00;;;;;;;;;;5074532;28;20457;-65
2022/09/20 09:24:26;;;;;;;59.27;2.60;;;;;;;;;;5074634;28;20520;-65
2022/09/20 09:27:06;;;;;;;57.63;2.57;;;;;;;;;;5074718;28;20802;-65
2022/09/20 09:29:33;;;;;;;57.67;2.40;;;;;;;;;;5074200;28;20532;-68
2022/09/20 09:32:15;;;;;;;57.87;2.53;;;;;;;;;;5074237;28;20453;-67
2022/09/20 09:34:44;;;;;;;57.83;2.50;;;;;;;;;;5071898;28;20489;-68
2022/09/20 09:37:22;;;;;;;57.53;2.70;;;;;;;;;;5074082;28;20457;-67
2022/09/20 09:40:05;;;;;;;57.77;2.70;;;;;;;;;;5074054;28;20446;-68
2022/09/20 09:42:32;;;;;;;58.80;3.70;;;;;;;;;;5061181;28;20815;-66
2022/09/20 09:45:11;;;;;;;57.70;2.50;;;;;;;;;;5054322;28;20853;-67
2022/09/20 09:47:38;;;;;;;59.43;2.90;;;;;;;;;;5054314;28;20452;-66
2022/09/20 09:50:07;;;;;;;57.77;2.43;;;;;;;;;;5053801;28;20455;-65
2022/09/20 09:52:35;;;;;;;57.73;2.63;;;;;;;;;;5054159;28;20456;-66
2022/09/20 09:55:03;;;;;;;57.87;2.33;;;;;;;;;;5053891;28;20491;-67
2022/09/20 09:57:40;;;;;;;57.97;2.50;;;;;;;;;;5053959;28;20940;-67
2022/09/20 10:00:12;;;;;;;57.77;2.57;;;;;;;;;;5053818;28;20448;-65
2022/09/20 10:02:52;;;;;;;59.23;2.73;;;;;;;;;;5054056;28;20529;-65
2022/09/20 10:05:22;;;;;;;57.97;2.50;;;;;;;;;;5053631;28;20468;-67
2022/09/20 10:07:54;;;;;;;57.77;2.20;;;;;;;;;;5053763;28;20455;-66
2022/09/20 10:10:25;;;;;;;57.37;2.00;;;;;;;;;;5057538;28;20459;-66
2022/09/20 10:12:58;;;;;;;57.57;2.40;;;;;;;;;;5073789;28;20455;-66
2022/09/20 10:15:28;;;;;;;57.67;2.30;;;;;;;;;;5073653;28;20464;-66
2022/09/20 10:18:07;;;;;;;58.20;2.70;;;;;;;;;;5073412;28;20452;-66
2022/09/20 10:20:43;;;;;;;60.20;2.80;;;;;;;;;;5073353;28;20474;-66
2022/09/20 10:23:18;;;;;;;57.90;2.30;;;;;;;;;;5073598;28;20447;-66
2022/09/20 10:25:53;;;;;;;58.70;2.40;;;;;;;;;;5073614;28;20453;-66
2022/09/20 10:28:47;;;;;;;58.57;3.03;;;;;;;;;;5073114;28;20920;-66
2022/09/20 10:31:20;;;;;;;59.17;2.70;;;;;;;;;;5073239;28;20451;-66
2022/09/20 10:33:52;;;;;;;57.63;2.17;;;;;;;;;;5073279;28;20470;-66
2022/09/20 10:36:24;;;;;;;58.10;2.47;;;;;;;;;;5073278;28;20459;-66
2022/09/20 10:38:54;;;;;;;58.27;2.60;;;;;;;;;;5072662;28;20462;-65
2022/09/20 10:44:27;;;;;;;57.53;2.30;;;;;;;;;;5073067;28;20438;-66
2022/09/20 10:46:59;;;;;;;57.70;2.13;;;;;;;;;;5072427;28;20501;-66
2022/09/20 10:49:35;;;;;;;57.47;2.10;;;;;;;;;;5072360;28;20481;-66
2022/09/20 10:52:25;;;;;;;57.67;2.20;;;;;;;;;;5073091;28;20487;-66
2022/09/20 10:55:03;;;;;;;57.80;2.23;;;;;;;;;;5072845;28;20477;-66
2022/09/20 10:57:54;;;;;;;62.77;2.70;;;;;;;;;;5072705;28;20448;-66
2022/09/20 11:00:22;;;;;;;58.80;3.37;;;;;;;;;;5057197;28;20516;-66
2022/09/20 11:03:04;;;;;;;57.80;2.20;;;;;;;;;;5072729;28;20451;-66
2022/09/20 11:05:35;;;;;;;60.13;2.70;;;;;;;;;;5072595;28;20463;-66
2022/09/20 11:08:06;;;;;;;58.30;2.20;;;;;;;;;;5072745;28;20526;-66
2022/09/20 11:10:35;;;;;;;57.90;2.30;;;;;;;;;;5072441;28;20466;-66
2022/09/20 11:13:04;;;;;;;63.10;2.73;;;;;;;;;;5072280;28;20451;-66
2022/09/20 11:15:35;;;;;;;57.77;2.10;;;;;;;;;;5070067;28;20479;-66
2022/09/20 11:18:06;;;;;;;58.50;2.10;;;;;;;;;;5072271;28;20450;-66
2022/09/20 11:20:36;;;;;;;58.30;3.50;;;;;;;;;;5071928;28;20458;-66
2022/09/20 11:23:07;;;;;;;58.40;2.50;;;;;;;;;;5072250;28;20455;-66
2022/09/20 11:25:35;;;;;;;57.80;2.13;;;;;;;;;;5072342;28;20474;-66
2022/09/20 11:28:03;;;;;;;57.80;2.27;;;;;;;;;;5072170;28;20451;-66
2022/09/20 11:30:31;;;;;;;57.73;2.10;;;;;;;;;;5071768;28;20486;-66
2022/09/20 11:33:01;;;;;;;57.77;2.40;;;;;;;;;;5071940;28;21112;-66
2022/09/20 11:35:30;;;;;;;57.13;2.00;;;;;;;;;;5071920;28;20485;-66
2022/09/20 11:38:10;;;;;;;57.40;1.90;;;;;;;;;;5072154;28;20457;-66
2022/09/20 11:40:39;;;;;;;57.57;2.17;;;;;;;;;;5071678;28;20487;-66
2022/09/20 11:43:07;;;;;;;57.57;2.40;;;;;;;;;;5071943;28;20487;-66
2022/09/20 11:45:34;;;;;;;57.80;2.50;;;;;;;;;;5069531;28;20635;-66
2022/09/20 11:48:04;;;;;;;58.00;2.10;;;;;;;;;;5071967;28;20447;-66
2022/09/20 11:50:37;;;;;;;57.60;2.40;;;;;;;;;;5071456;28;21097;-66
2022/09/20 11:53:11;;;;;;;58.17;2.23;;;;;;;;;;5071913;28;20447;-66
2022/09/20 11:55:42;;;;;;;57.23;2.00;;;;;;;;;;5071751;28;20469;-66
2022/09/20 11:58:12;;;;;;;57.60;2.10;;;;;;;;;;5071640;28;20517;-66
2022/09/20 12:00:41;;;;;;;57.33;2.20;;;;;;;;;;5071643;28;20443;-66
2022/09/20 12:03:11;;;;;;;57.23;2.13;;;;;;;;;;5071765;28;20578;-66
2022/09/20 12:05:40;;;;;;;57.67;1.97;;;;;;;;;;5071751;28;20474;-66
2022/09/20 12:08:18;;;;;;;61.20;3.47;;;;;;;;;;5071540;28;20448;-66
2022/09/20 12:10:55;;;;;;;57.47;2.07;;;;;;;;;;5071588;28;20431;-66
2022/09/20 12:13:24;;;;;;;57.97;2.60;;;;;;;;;;5071652;28;20443;-66
2022/09/20 12:15:58;;;;;;;57.60;2.30;;;;;;;;;;5071611;28;20447;-66
2022/09/20 12:18:46;;;;;;;56.80;2.03;;;;;;;;;;5069341;28;20444;-66
2022/09/20 12:21:15;;;;;;;58.30;2.20;;;;;;;;;;5045974;28;20455;-66
2022/09/20 12:24:02;;;;;;;57.63;2.00;;;;;;;;;;5071576;28;20558;-66
2022/09/20 12:26:43;;;;;;;59.47;2.40;;;;;;;;;;5071607;28;20447;-66
2022/09/20 12:29:25;;;;;;;59.27;2.57;;;;;;;;;;5070876;28;20479;-67
2022/09/20 12:31:54;;;;;;;57.20;2.37;;;;;;;;;;5071233;28;20469;-67
2022/09/20 12:34:33;;;;;;;57.80;2.20;;;;;;;;;;5071210;28;21013;-67
2022/09/20 12:37:22;;;;;;;57.13;1.97;;;;;;;;;;5071464;28;20445;-66
2022/09/20 12:39:55;;;;;;;58.73;2.53;;;;;;;;;;5071111;28;20439;-66
2022/09/20 12:42:28;;;;;;;57.37;2.33;;;;;;;;;;5071323;28;20450;-67
2022/09/20 12:44:59;;;;;;;59.50;2.13;;;;;;;;;;5071367;28;20477;-67
2022/09/20 12:47:28;;;;;;;57.20;1.90;;;;;;;;;;5071151;28;20450;-66
2022/09/20 12:52:59;;;;;;;57.50;2.10;;;;;;;;;;5071547;28;20473;-66
2022/09/20 12:55:31;;;;;;;59.67;2.30;;;;;;;;;;5071274;28;20478;-66
2022/09/20 12:58:00;;;;;;;57.67;2.27;;;;;;;;;;5071232;28;20450;-66
2022/09/20 13:00:33;;;;;;;57.43;2.20;;;;;;;;;;5070693;28;20504;-66
2022/09/20 13:03:01;;;;;;;59.80;3.03;;;;;;;;;;5071360;28;20447;-66
2022/09/20 13:05:35;;;;;;;57.47;2.20;;;;;;;;;;5071236;28;20471;-66
2022/09/20 13:08:03;;;;;;;57.80;2.40;;;;;;;;;;5071195;28;20447;-66
2022/09/20 13:10:34;;;;;;;57.90;2.33;;;;;;;;;;5071688;28;20490;-66
2022/09/20 13:13:04;;;;;;;57.43;1.97;;;;;;;;;;5074457;28;20455;-66
2022/09/20 13:15:32;;;;;;;57.70;2.20;;;;;;;;;;5074605;28;20458;-66
2022/09/20 13:18:01;;;;;;;58.80;2.37;;;;;;;;;;5074856;28;20451;-66
2022/09/20 13:20:30;;;;;;;57.60;2.30;;;;;;;;;;5071875;28;20822;-67
2022/09/20 13:22:58;;;;;;;59.47;2.63;;;;;;;;;;5074657;28;21103;-67
2022/09/20 13:25:27;;;;;;;57.80;2.40;;;;;;;;;;5074464;28;20473;-67
2022/09/20 13:27:58;;;;;;;57.17;2.20;;;;;;;;;;5074824;28;20452;-67
2022/09/20 13:30:27;;;;;;;57.63;2.27;;;;;;;;;;5062636;28;20492;-68
2022/09/20 13:32:54;;;;;;;57.90;2.23;;;;;;;;;;5054539;28;20439;-67
2022/09/20 13:35:22;;;;;;;57.37;2.10;;;;;;;;;;5053160;28;21030;-68
2022/09/20 13:37:54;;;;;;;57.47;2.30;;;;;;;;;;5054133;28;20498;-68
2022/09/20 13:40:22;;;;;;;57.37;2.10;;;;;;;;;;5054064;28;20448;-68
2022/09/20 13:42:51;;;;;;;57.97;2.40;;;;;;;;;;5054121;28;20447;-68
2022/09/20 13:45:20;;;;;;;57.67;1.97;;;;;;;;;;5054089;28;20480;-68
2022/09/20 13:47:50;;;;;;;60.63;2.17;;;;;;;;;;5054439;28;20849;-69
2022/09/20 13:50:18;;;;;;;57.37;2.20;;;;;;;;;;5053799;28;20484;-67
2022/09/20 13:52:46;;;;;;;57.30;2.10;;;;;;;;;;5054371;28;20450;-67
2022/09/20 13:55:21;;;;;;;56.90;2.10;;;;;;;;;;5054223;28;20464;-66
2022/09/20 13:57:48;;;;;;;57.80;2.10;;;;;;;;;;5054170;28;20450;-66
2022/09/20 14:00:16;;;;;;;57.70;2.40;;;;;;;;;;5053663;28;20471;-66
2022/09/20 14:02:45;;;;;;;57.63;2.30;;;;;;;;;;5053980;28;20521;-68
2022/09/20 14:05:16;;;;;;;57.57;2.30;;;;;;;;;;5053744;28;20969;-68
2022/09/20 14:07:44;;;;;;;57.57;2.27;;;;;;;;;;5053989;28;20444;-67
2022/09/20 14:10:27;;;;;;;63.23;2.50;;;;;;;;;;5053398;28;21008;-68
2022/09/20 14:12:54;;;;;;;59.73;2.70;;;;;;;;;;5053900;28;20547;-67
2022/09/20 14:15:21;;;;;;;61.57;2.57;;;;;;;;;;5053467;28;20475;-67
2022/09/20 14:17:52;;;;;;;58.10;2.27;;;;;;;;;;5053873;28;20476;-67
2022/09/20 14:20:19;;;;;;;57.87;2.30;;;;;;;;;;5053486;28;20540;-65
2022/09/20 14:22:46;;;;;;;58.03;2.60;;;;;;;;;;5052599;28;20455;-66
2022/09/20 14:25:20;;;;;;;58.07;2.50;;;;;;;;;;5053507;28;20468;-67
2022/09/20 14:27:47;;;;;;;58.47;2.67;;;;;;;;;;5053314;28;20459;-68
2022/09/20 14:30:30;;;;;;;58.20;2.90;;;;;;;;;;5053294;28;20490;-67
2022/09/20 14:32:59;;;;;;;58.33;2.73;;;;;;;;;;5053561;28;20452;-66
2022/09/20 14:35:26;;;;;;;61.73;3.20;;;;;;;;;;5053220;28;20858;-67
2022/09/20 14:37:54;;;;;;;58.00;2.40;;;;;;;;;;5053368;28;20451;-66
2022/09/20 14:40:26;;;;;;;57.93;2.53;;;;;;;;;;5052908;28;20451;-66
2022/09/20 14:42:57;;;;;;;58.30;2.73;;;;;;;;;;5053311;28;20481;-67
2022/09/20 14:45:26;;;;;;;60.70;3.20;;;;;;;;;;5053220;28;20468;-65
2022/09/20 14:47:56;;;;;;;59.27;3.03;;;;;;;;;;5053185;28;20884;-66
2022/09/20 14:50:26;;;;;;;58.10;2.90;;;;;;;;;;5052732;28;20487;-66
2022/09/20 14:53:05;;;;;;;58.90;3.10;;;;;;;;;;5052903;28;20823;-65
2022/09/20 14:55:32;;;;;;;58.07;2.73;;;;;;;;;;5053052;28;20467;-66
2022/09/20 14:58:03;;;;;;;58.90;3.13;;;;;;;;;;5052935;28;20463;-65
2022/09/20 15:00:30;;;;;;;60.80;3.53;;;;;;;;;;5052700;28;20456;-66
2022/09/20 15:03:04;;;;;;;58.17;2.73;;;;;;;;;;5052888;28;20820;-65
2022/09/20 15:05:33;;;;;;;61.10;3.20;;;;;;;;;;5052562;28;20526;-67
2022/09/20 15:08:00;;;;;;;60.37;3.30;;;;;;;;;;5052773;28;20466;-67
2022/09/20 15:10:28;;;;;;;58.20;2.67;;;;;;;;;;5052468;28;20487;-66
2022/09/20 15:12:55;;;;;;;58.93;3.03;;;;;;;;;;5053012;28;20860;-66